Main page
METAR-TAF:

METAR-TAF

Airports :

Augusto Severo International Airport

Natal, Rio Grande do Norte, Brazil

latitude: 05-55S, longitude: 035-15W, elevation: 52 m

Current weather observation

The report was made 31 minutes ago, at 22:00 UTC
Wind 7 kt from the East
Temperature 28°C
Humidity 79%
Pressure 1009 hPa
Visibility 10 km or more
Scattered clouds at a height of 1900 ft
Broken clouds at a height of 5200 ft

METAR: SBNT 252200Z 09007KT 9999 SCT019 BKN052 28/24 Q1009

Time: 19:31 (22:31 UTC)

Forecast

The report was made 6 hours and 36 minutes ago, at 15:55 UTC
Forecast valid from 25 at 18 UTC to 26 at 06 UTC
Wind 12 kt from the East
Visibility 10 km or more
Scattered clouds at a height of 2000 ft
Becoming
from 25 at 18 UTC to 25 at 20 UTC
Wind 10 kt from the East/Southeast
Becoming
from 26 at 00 UTC to 26 at 02 UTC
Wind 7 kt from the East

TAF: SBNT 251555Z 2518/2606 10012KT 9999 SCT020 TX30/2518Z TN26/2606Z BECMG 2518/2520 12010KT BECMG 2600/2602 10007KT RMK PGW

Weather observations and forecasts of more than 4000 airports (METAR and TAF reports).

The available stations are represented by yellow and red dots on the map.

Hover mouse over dot to see the name of the station.

Then click to see weather observations and forecasts.

To change the map : click on the green buttons with a black cross to zoom in, on the green button with a dash to zoom out, or on the green arrows for adjacent maps.


METAR-TAF: